Time;durP1;ratioP1;P1;durP2;ratioP2;P2;SDS_P1;SDS_P2;PMS_P1;PMS_P2;Temp;Humidity;BMP_temperature;BMP_pressure;BME280_temperature;BME280_humidity;BME280_pressure;Samples;Min_cycle;Max_cycle;Signal;HPM_P1;HPM_P2
2022/05/02 00:00:29;;;;;;;13.47;12.20;;;11.20;99.90;;;;;;4938860;29;20203;-80
2022/05/02 00:02:56;;;;;;;14.27;12.87;;;10.90;99.90;;;;;;4938630;29;20232;-80
2022/05/02 00:05:24;;;;;;;14.37;12.87;;;10.90;99.90;;;;;;4935958;29;20227;-80
2022/05/02 00:07:51;;;;;;;14.07;11.93;;;10.90;99.90;;;;;;4939051;29;20194;-80
2022/05/02 00:10:20;;;;;;;13.07;11.87;;;10.90;99.90;;;;;;4954302;29;20221;-80
2022/05/02 00:12:47;;;;;;;14.30;12.13;;;10.70;99.90;;;;;;4938494;29;20226;-80
2022/05/02 00:15:15;;;;;;;14.17;12.50;;;10.70;99.90;;;;;;4939788;29;20199;-80
2022/05/02 00:17:58;;;;;;;13.33;12.03;;;10.60;99.90;;;;;;4936896;29;20214;-80
2022/05/02 00:20:27;;;;;;;13.90;11.97;;;10.50;99.90;;;;;;4936571;29;20202;-80
2022/05/02 00:22:55;;;;;;;13.53;12.13;;;10.50;99.90;;;;;;4946353;29;20681;-80
2022/05/02 00:25:25;;;;;;;13.07;11.87;;;10.60;99.90;;;;;;4950140;29;20206;-80
2022/05/02 00:27:52;;;;;;;14.80;13.30;;;10.40;99.90;;;;;;4951075;28;20206;-80
2022/05/02 00:30:21;;;;;;;13.57;12.17;;;10.40;99.90;;;;;;4935582;29;20219;-80
2022/05/02 00:32:49;;;;;;;14.67;13.07;;;10.20;99.90;;;;;;4953911;29;20233;-80
2022/05/02 00:35:19;;;;;;;13.57;12.17;;;10.10;99.90;;;;;;4935589;29;20206;-80
2022/05/02 00:37:47;;;;;;;13.03;11.73;;;10.00;99.90;;;;;;4951608;28;20206;-80
2022/05/02 00:40:16;;;;;;;14.07;12.57;;;9.90;99.90;;;;;;4938438;29;20209;-80
2022/05/02 00:42:47;;;;;;;12.93;11.63;;;10.00;99.90;;;;;;4937201;29;20231;-80
2022/05/02 00:45:16;;;;;;;14.20;12.70;;;10.00;99.90;;;;;;4940341;29;20205;-80
2022/05/02 00:47:50;;;;;;;14.07;12.70;;;10.00;99.90;;;;;;4941695;29;20687;-80
2022/05/02 00:50:24;;;;;;;13.00;11.67;;;9.90;99.90;;;;;;4942072;29;20221;-80
2022/05/02 00:52:52;;;;;;;13.80;12.27;;;9.90;99.90;;;;;;4942258;29;20692;-80
2022/05/02 00:55:20;;;;;;;14.63;12.27;;;9.90;99.90;;;;;;4934939;29;20202;-80
2022/05/02 00:57:49;;;;;;;13.87;12.47;;;9.80;99.90;;;;;;4970160;28;20202;-80
2022/05/02 01:00:16;;;;;;;14.00;12.50;;;9.80;99.90;;;;;;4938857;29;20661;-80
2022/05/02 01:02:44;;;;;;;15.30;12.50;;;9.70;99.90;;;;;;4957110;29;20595;-80
2022/05/02 01:05:11;;;;;;;15.00;12.80;;;9.60;99.90;;;;;;4938032;29;20214;-80
2022/05/02 01:07:39;;;;;;;14.20;11.93;;;9.40;99.90;;;;;;4938233;29;20209;-80
2022/05/02 01:10:06;;;;;;;13.70;12.40;;;9.30;99.90;;;;;;4956706;29;20214;-80
2022/05/02 01:12:34;;;;;;;14.73;11.90;;;9.40;99.90;;;;;;4954962;29;20213;-80
2022/05/02 01:15:03;;;;;;;13.50;12.17;;;9.40;99.90;;;;;;4929217;29;20206;-80
2022/05/02 01:17:32;;;;;;;14.40;11.47;;;9.30;99.90;;;;;;4946816;29;20211;-80
2022/05/02 01:20:00;;;;;;;13.83;12.50;;;9.30;99.90;;;;;;4954041;29;20207;-80
2022/05/02 01:22:28;;;;;;;12.47;11.27;;;9.20;99.90;;;;;;4953888;29;20214;-80
2022/05/02 01:24:56;;;;;;;13.83;12.43;;;9.10;99.90;;;;;;4953850;29;20195;-80
2022/05/02 01:27:23;;;;;;;13.83;12.43;;;9.20;99.90;;;;;;4955567;28;20687;-80
2022/05/02 01:29:51;;;;;;;13.90;11.77;;;9.20;99.90;;;;;;4941270;29;20210;-80
2022/05/02 01:32:18;;;;;;;13.97;12.60;;;9.30;99.90;;;;;;4938590;29;20203;-80
2022/05/02 01:34:45;;;;;;;13.57;12.17;;;9.30;99.90;;;;;;4942273;29;20221;-80
2022/05/02 01:37:14;;;;;;;15.53;12.70;;;9.30;99.90;;;;;;4939552;29;20219;-80
2022/05/02 01:39:43;;;;;;;13.93;12.50;;;9.20;99.90;;;;;;4943741;29;20556;-80
2022/05/02 01:42:12;;;;;;;14.13;12.73;;;9.10;99.90;;;;;;4955872;29;20210;-80
2022/05/02 01:44:40;;;;;;;13.37;12.03;;;9.00;99.90;;;;;;4942414;29;20242;-80
2022/05/02 01:47:09;;;;;;;13.73;12.33;;;9.00;99.90;;;;;;4939758;29;20213;-80
2022/05/02 01:49:37;;;;;;;14.50;12.97;;;9.00;99.90;;;;;;4941667;29;20202;-80
2022/05/02 01:52:05;;;;;;;14.37;12.93;;;9.20;99.90;;;;;;4956701;28;20206;-80
2022/05/02 01:54:32;;;;;;;14.10;12.70;;;9.10;99.90;;;;;;4938320;29;20223;-80
2022/05/02 01:57:01;;;;;;;14.93;12.87;;;9.10;99.90;;;;;;4938296;29;20221;-80
2022/05/02 01:59:29;;;;;;;14.57;12.93;;;9.10;99.90;;;;;;4957101;29;20198;-80
2022/05/02 02:01:56;;;;;;;15.07;13.47;;;9.10;99.90;;;;;;4958497;29;20214;-80
2022/05/02 02:07:09;;;;;;;14.77;13.27;;;9.20;99.90;;;;;;4952758;29;20213;-79
2022/05/02 02:09:36;;;;;;;14.83;13.30;;;9.20;99.90;;;;;;4941667;29;20202;-80
2022/05/02 02:12:06;;;;;;;14.80;13.30;;;9.10;99.90;;;;;;4959270;29;20209;-81
2022/05/02 02:14:33;;;;;;;15.00;13.57;;;9.20;99.90;;;;;;4944078;29;20218;-80
2022/05/02 02:17:01;;;;;;;15.60;14.07;;;9.20;99.90;;;;;;4939752;29;20206;-80
2022/05/02 02:19:28;;;;;;;16.47;14.33;;;9.30;99.90;;;;;;4945249;29;20222;-80
2022/05/02 02:22:16;;;;;;;15.90;14.30;;;9.20;99.90;;;;;;4941187;29;20203;-80
2022/05/02 02:24:44;;;;;;;16.30;14.70;;;9.20;99.90;;;;;;4944698;29;20222;-80
2022/05/02 02:27:13;;;;;;;15.60;14.00;;;9.10;99.90;;;;;;4941556;29;20210;-80
2022/05/02 02:29:40;;;;;;;15.33;13.73;;;9.10;99.90;;;;;;4956432;29;20202;-80
2022/05/02 02:32:09;;;;;;;15.37;13.87;;;9.10;99.90;;;;;;4941122;29;20210;-80
2022/05/02 02:34:36;;;;;;;15.37;13.80;;;9.10;99.90;;;;;;4955160;29;20241;-80
2022/05/02 02:37:04;;;;;;;16.63;14.93;;;9.10;99.90;;;;;;4939693;29;20202;-80
2022/05/02 02:39:31;;;;;;;15.57;13.80;;;9.20;99.90;;;;;;4929901;29;20203;-80
2022/05/02 02:41:59;;;;;;;16.57;14.63;;;9.20;99.90;;;;;;4943251;29;20646;-80
2022/05/02 02:44:28;;;;;;;15.20;13.60;;;9.30;99.90;;;;;;4951186;29;20222;-80
2022/05/02 02:46:55;;;;;;;15.73;13.97;;;9.40;99.90;;;;;;4938703;29;20206;-80
2022/05/02 02:49:23;;;;;;;15.80;14.10;;;9.40;99.90;;;;;;4953851;29;20211;-80
2022/05/02 02:51:50;;;;;;;15.67;13.97;;;9.30;99.90;;;;;;4955150;29;20226;-80
2022/05/02 02:54:18;;;;;;;15.60;13.73;;;9.20;99.90;;;;;;4939617;29;20273;-80
2022/05/02 02:56:47;;;;;;;15.67;13.97;;;9.20;99.90;;;;;;4940589;29;20190;-80
2022/05/02 02:59:15;;;;;;;15.27;13.77;;;9.10;99.90;;;;;;4938549;29;20210;-80
2022/05/02 03:01:44;;;;;;;18.13;15.37;;;9.10;99.90;;;;;;4938022;29;20203;-80
2022/05/02 03:07:02;;;;;;;15.13;13.53;;;9.00;99.90;;;;;;4953789;29;20206;-80
2022/05/02 03:09:31;;;;;;;15.20;13.70;;;9.00;99.90;;;;;;4939950;29;20201;-80
2022/05/02 03:11:59;;;;;;;15.43;13.83;;;9.00;99.90;;;;;;4939813;28;20234;-80
2022/05/02 03:14:26;;;;;;;15.10;13.50;;;9.00;99.90;;;;;;4955788;29;20222;-80
2022/05/02 03:16:55;;;;;;;15.13;13.53;;;9.00;99.90;;;;;;4939264;29;20209;-80
2022/05/02 03:19:23;;;;;;;16.37;14.70;;;8.90;99.90;;;;;;4950363;29;20206;-81
2022/05/02 03:21:50;;;;;;;15.03;13.53;;;8.90;99.90;;;;;;4939267;29;20194;-80
2022/05/02 03:24:17;;;;;;;15.80;14.20;;;9.00;99.90;;;;;;4955613;29;20585;-80
2022/05/02 03:26:45;;;;;;;16.93;15.13;;;9.00;99.90;;;;;;4938929;29;20205;-80
2022/05/02 03:29:12;;;;;;;14.87;13.23;;;8.90;99.90;;;;;;4933493;29;20207;-80
2022/05/02 03:31:40;;;;;;;16.20;14.03;;;8.90;99.90;;;;;;4939620;29;20209;-80
2022/05/02 03:34:08;;;;;;;15.67;14.07;;;8.80;99.90;;;;;;4938318;29;20234;-80
2022/05/02 03:36:36;;;;;;;15.93;14.23;;;8.90;99.90;;;;;;4946427;29;20206;-80
2022/05/02 03:39:04;;;;;;;15.70;14.20;;;8.90;99.90;;;;;;4937602;29;20214;-81
2022/05/02 03:41:31;;;;;;;16.47;14.87;;;8.80;99.90;;;;;;4936081;29;20206;-81
2022/05/02 03:43:59;;;;;;;17.33;15.53;;;8.80;99.90;;;;;;4936272;29;20226;-81
2022/05/02 03:46:26;;;;;;;17.13;15.10;;;8.80;99.90;;;;;;4934420;29;20230;-81
2022/05/02 03:48:54;;;;;;;16.27;14.27;;;8.70;99.90;;;;;;4949678;29;20225;-81
2022/05/02 03:51:22;;;;;;;16.33;14.27;;;8.70;99.90;;;;;;4934983;29;20700;-81
2022/05/02 03:53:50;;;;;;;16.97;15.17;;;8.70;99.90;;;;;;4952273;29;20594;-81
2022/05/02 03:56:17;;;;;;;17.37;15.57;;;8.70;99.90;;;;;;4931922;29;20215;-81
2022/05/02 03:58:44;;;;;;;15.50;13.97;;;8.70;99.90;;;;;;4947284;29;20230;-81
2022/05/02 04:01:12;;;;;;;16.63;15.00;;;8.70;99.90;;;;;;4941222;29;20214;-82
2022/05/02 04:03:39;;;;;;;16.50;14.77;;;8.70;99.90;;;;;;4934864;29;20230;-82
2022/05/02 04:06:06;;;;;;;16.30;14.60;;;8.80;99.90;;;;;;4935277;29;20214;-82
2022/05/02 04:08:35;;;;;;;16.83;14.77;;;8.80;99.90;;;;;;4950546;29;20574;-82
2022/05/02 04:11:03;;;;;;;18.20;15.97;;;8.80;99.90;;;;;;4931696;29;20223;-82
2022/05/02 04:13:30;;;;;;;16.50;14.73;;;8.80;99.90;;;;;;4946822;29;20562;-82
2022/05/02 04:15:57;;;;;;;18.03;16.13;;;8.90;99.90;;;;;;4928565;29;20222;-82
2022/05/02 04:18:25;;;;;;;17.47;15.77;;;8.80;99.90;;;;;;4951168;28;20194;-82
2022/05/02 04:20:52;;;;;;;16.47;14.77;;;8.70;99.90;;;;;;4936426;29;20213;-82
2022/05/02 04:23:20;;;;;;;16.70;15.03;;;8.70;99.90;;;;;;4934978;29;20230;-82
2022/05/02 04:25:49;;;;;;;16.17;14.67;;;8.70;99.90;;;;;;4951081;29;20215;-82
2022/05/02 04:28:16;;;;;;;17.23;15.10;;;8.70;99.90;;;;;;4945696;29;20202;-82
2022/05/02 04:30:43;;;;;;;17.50;15.80;;;8.60;99.90;;;;;;4950943;29;20206;-82
2022/05/02 04:33:12;;;;;;;17.47;15.10;;;8.70;99.90;;;;;;4934191;29;20241;-82
2022/05/02 04:35:39;;;;;;;17.03;15.23;;;8.80;99.90;;;;;;4949957;29;20206;-82
2022/05/02 04:38:07;;;;;;;19.63;17.57;;;8.70;99.90;;;;;;4933595;29;20202;-82
2022/05/02 04:40:34;;;;;;;17.70;15.90;;;8.80;99.90;;;;;;4929283;29;20692;-82
2022/05/02 04:43:03;;;;;;;18.13;16.33;;;8.80;99.90;;;;;;4933581;29;20225;-81
2022/05/02 04:45:30;;;;;;;19.53;16.37;;;8.70;99.90;;;;;;4949999;29;20218;-81
2022/05/02 04:47:58;;;;;;;18.77;16.80;;;8.90;99.90;;;;;;4932442;29;20217;-82
2022/05/02 04:50:25;;;;;;;17.87;16.07;;;8.80;99.90;;;;;;4949239;29;20552;-82
2022/05/02 04:52:53;;;;;;;17.60;15.77;;;8.80;99.90;;;;;;4933482;29;20236;-82
2022/05/02 04:55:20;;;;;;;17.00;15.20;;;8.90;99.90;;;;;;4930809;29;20222;-82
2022/05/02 04:57:48;;;;;;;32.07;28.40;;;8.90;99.90;;;;;;4948380;29;20566;-82
2022/05/02 05:00:19;;;;;;;19.67;17.57;;;8.80;99.90;;;;;;4935320;29;20203;-82
2022/05/02 05:02:46;;;;;;;17.83;15.87;;;8.90;99.90;;;;;;4941414;29;20222;-82
2022/05/02 05:05:14;;;;;;;17.40;15.60;;;9.00;99.90;;;;;;4949532;29;20202;-82
2022/05/02 05:07:41;;;;;;;17.73;15.90;;;9.10;99.90;;;;;;4933330;29;20683;-82
2022/05/02 05:10:10;;;;;;;16.60;14.80;;;9.20;99.90;;;;;;4926562;29;20213;-82
2022/05/02 05:12:54;;;;;;;17.53;15.83;;;9.10;99.90;;;;;;4949883;28;20233;-82
2022/05/02 05:18:37;;;;;;;18.03;16.23;;;9.00;99.90;;;;;;4941994;29;20202;-81
2022/05/02 05:21:08;;;;;;;18.90;15.57;;;9.10;99.90;;;;;;4934865;29;20199;-82
2022/05/02 05:24:00;;;;;;;17.60;15.83;;;9.30;99.90;;;;;;4930889;29;20218;-81
2022/05/02 05:26:41;;;;;;;18.13;16.33;;;9.60;99.90;;;;;;4964803;28;20199;-82
2022/05/02 05:29:19;;;;;;;17.77;15.80;;;9.60;99.90;;;;;;4934972;29;20206;-81
2022/05/02 05:31:58;;;;;;;19.37;16.20;;;9.70;99.90;;;;;;4952127;29;20222;-82
2022/05/02 05:34:38;;;;;;;18.23;15.47;;;9.70;99.90;;;;;;4951825;28;20594;-82
2022/05/02 05:37:42;;;;;;;17.93;16.13;;;9.70;99.90;;;;;;4929332;29;20213;-81
2022/05/02 05:40:16;;;;;;;16.93;15.23;;;9.70;99.90;;;;;;4947415;29;20211;-82
2022/05/02 05:43:02;;;;;;;17.60;15.73;;;9.70;99.90;;;;;;4949679;29;20237;-82
2022/05/02 05:45:42;;;;;;;23.73;18.57;;;9.70;99.90;;;;;;4937603;29;20229;-82
2022/05/02 05:48:15;;;;;;;17.90;16.03;;;9.70;99.90;;;;;;4937216;29;20614;-82
2022/05/02 05:50:49;;;;;;;16.93;15.23;;;9.90;99.90;;;;;;4953907;29;20198;-82
2022/05/02 05:53:32;;;;;;;17.33;15.63;;;10.00;99.90;;;;;;4938043;29;20245;-81
2022/05/02 05:56:16;;;;;;;19.10;17.10;;;10.10;99.90;;;;;;4937651;29;20688;-82
2022/05/02 05:58:57;;;;;;;18.17;15.87;;;9.90;99.90;;;;;;4937203;29;20667;-82
2022/05/02 06:01:36;;;;;;;17.17;15.47;;;10.20;99.90;;;;;;4938671;29;20202;-82
2022/05/02 06:04:07;;;;;;;17.27;15.43;;;10.40;99.90;;;;;;4953855;28;20226;-82
2022/05/02 06:06:36;;;;;;;18.50;16.67;;;10.50;99.90;;;;;;4954213;29;20210;-82
2022/05/02 06:09:06;;;;;;;18.83;16.93;;;10.30;99.90;;;;;;4937395;29;20222;-82
2022/05/02 06:11:34;;;;;;;18.13;16.07;;;10.30;99.90;;;;;;4954349;29;20572;-83
2022/05/02 06:14:03;;;;;;;17.77;15.90;;;10.50;99.90;;;;;;4953092;29;20233;-82
2022/05/02 06:19:25;;;;;;;17.93;16.13;;;10.50;99.90;;;;;;4937847;29;20206;-82
2022/05/02 06:21:54;;;;;;;18.10;15.97;;;10.60;99.90;;;;;;4934537;29;20222;-82
2022/05/02 06:24:25;;;;;;;18.50;16.60;;;10.80;99.90;;;;;;4948203;29;20237;-82
2022/05/02 06:26:56;;;;;;;19.43;17.23;;;10.90;99.90;;;;;;4953332;29;20202;-82
2022/05/02 06:29:24;;;;;;;17.63;15.80;;;10.80;99.90;;;;;;4936450;29;20215;-82
2022/05/02 06:31:58;;;;;;;18.50;16.50;;;10.80;99.90;;;;;;4953960;29;20210;-82
2022/05/02 06:34:29;;;;;;;19.60;16.23;;;10.90;99.90;;;;;;4950914;28;20230;-82
2022/05/02 06:37:31;;;;;;;18.57;15.60;;;11.00;99.90;;;;;;4968588;28;20597;-81
2022/05/02 06:40:05;;;;;;;17.60;15.83;;;11.00;99.90;;;;;;4932803;29;20232;-82
2022/05/02 06:42:38;;;;;;;19.27;17.17;;;10.90;99.90;;;;;;4936918;29;20213;-82
2022/05/02 06:45:23;;;;;;;19.03;17.13;;;11.00;99.90;;;;;;4950245;29;20199;-82
2022/05/02 06:48:12;;;;;;;18.27;16.37;;;10.90;99.90;;;;;;4934960;29;20202;-82
2022/05/02 06:50:46;;;;;;;19.10;17.20;;;11.00;99.90;;;;;;4953110;29;20687;-82
2022/05/02 06:53:31;;;;;;;19.00;17.07;;;11.10;99.90;;;;;;4936820;29;20226;-82
2022/05/02 06:56:06;;;;;;;17.87;16.07;;;11.10;99.90;;;;;;4953506;29;20198;-82
2022/05/02 06:58:40;;;;;;;18.60;16.53;;;11.10;99.90;;;;;;4953358;29;20198;-82
2022/05/02 07:01:18;;;;;;;18.63;16.73;;;11.30;99.90;;;;;;4934043;29;20210;-82
2022/05/02 07:04:08;;;;;;;18.60;15.73;;;11.40;99.90;;;;;;4934447;29;20219;-82
2022/05/02 07:06:52;;;;;;;18.27;16.37;;;11.40;99.90;;;;;;4921072;29;20218;-82
2022/05/02 07:09:25;;;;;;;19.27;16.50;;;11.60;99.90;;;;;;4938132;29;20206;-82
2022/05/02 07:12:02;;;;;;;17.83;15.97;;;11.60;99.90;;;;;;4953331;29;20217;-82
2022/05/02 07:14:39;;;;;;;18.03;16.10;;;11.70;99.90;;;;;;4920045;29;20219;-82
2022/05/02 07:17:14;;;;;;;18.03;16.20;;;11.90;99.90;;;;;;4950412;29;20681;-82
2022/05/02 07:19:54;;;;;;;18.37;16.47;;;12.10;99.90;;;;;;4940829;29;20202;-82
2022/05/02 07:22:33;;;;;;;18.07;16.17;;;11.90;99.90;;;;;;4953406;28;20217;-82
2022/05/02 07:25:09;;;;;;;16.23;14.63;;;11.80;99.90;;;;;;4953777;29;20228;-82
2022/05/02 07:27:54;;;;;;;17.30;15.50;;;11.90;99.90;;;;;;4936943;29;20202;-82
2022/05/02 07:30:22;;;;;;;16.27;14.75;;;12.00;99.90;;;;;;4937838;29;20202;-82
2022/05/02 07:32:51;;;;;;;19.77;15.98;;;11.80;99.90;;;;;;4952797;29;20234;-82
2022/05/02 07:35:21;;;;;;;16.73;14.77;;;12.10;99.90;;;;;;4970260;28;20205;-82
2022/05/02 07:37:51;;;;;;;17.80;16.00;;;12.30;99.90;;;;;;4971133;28;20213;-82
2022/05/02 07:40:20;;;;;;;15.90;14.37;;;12.10;99.90;;;;;;4984223;28;20198;-81
2022/05/02 07:42:48;;;;;;;16.90;15.10;;;12.40;99.90;;;;;;4970392;28;20576;-82
2022/05/02 07:45:17;;;;;;;15.05;13.38;;;12.60;99.90;;;;;;4941153;29;20217;-82
2022/05/02 07:47:47;;;;;;;15.65;13.68;;;12.70;99.90;;;;;;4951367;29;20203;-82
2022/05/02 07:50:16;;;;;;;16.70;14.73;;;12.60;99.90;;;;;;4952126;29;20233;-82
2022/05/02 07:52:46;;;;;;;15.07;13.57;;;12.70;99.90;;;;;;4935896;29;20243;-82
2022/05/02 07:55:15;;;;;;;15.60;13.13;;;12.70;99.90;;;;;;4936047;29;20704;-82
2022/05/02 07:57:43;;;;;;;13.98;12.57;;;12.70;99.90;;;;;;4934469;29;20234;-82
2022/05/02 08:00:13;;;;;;;14.98;13.43;;;12.90;99.90;;;;;;4950980;29;20555;-82
2022/05/02 08:02:41;;;;;;;16.38;12.95;;;12.90;99.90;;;;;;4933595;29;20210;-82
2022/05/02 08:05:09;;;;;;;15.80;14.30;;;13.10;99.90;;;;;;4951208;29;20212;-82
2022/05/02 08:07:39;;;;;;;15.60;14.15;;;13.10;99.80;;;;;;4951605;28;20211;-82
2022/05/02 08:10:43;;;;;;;17.13;14.65;;;13.30;99.60;;;;;;4936855;29;20211;-82
2022/05/02 08:13:32;;;;;;;14.88;13.43;;;13.40;99.80;;;;;;4951546;29;20225;-82
2022/05/02 08:16:03;;;;;;;15.23;13.43;;;13.40;99.90;;;;;;4943335;29;20194;-82
2022/05/02 08:18:49;;;;;;;17.83;12.43;;;13.60;99.50;;;;;;4949544;29;20229;-82
2022/05/02 08:21:19;;;;;;;14.35;12.45;;;13.60;98.70;;;;;;4935386;29;20206;-82
2022/05/02 08:27:19;;;;;;;15.55;12.60;;;13.40;98.40;;;;;;4935626;29;20198;-82
2022/05/02 08:30:05;;;;;;;14.02;11.80;;;13.60;98.20;;;;;;4905062;29;20207;-80
2022/05/02 08:32:56;;;;;;;12.52;11.23;;;13.70;97.40;;;;;;4933000;29;20210;-80
2022/05/02 08:35:46;;;;;;;13.48;11.43;;;13.80;96.90;;;;;;4941562;29;20213;-80
2022/05/02 08:38:41;;;;;;;12.70;9.73;;;13.90;97.00;;;;;;4951009;29;20194;-80
2022/05/02 08:41:46;;;;;;;11.15;9.88;;;13.90;97.20;;;;;;4936847;29;20191;-80
2022/05/02 08:44:44;;;;;;;13.10;10.27;;;13.90;96.40;;;;;;4953035;28;20226;-80
2022/05/02 08:47:35;;;;;;;11.70;9.93;;;14.00;96.70;;;;;;4904192;29;20206;-80
2022/05/02 08:50:18;;;;;;;11.95;9.73;;;14.00;96.70;;;;;;4937632;29;20187;-80
2022/05/02 08:53:28;;;;;;;10.55;9.50;;;14.20;96.60;;;;;;4936710;29;20218;-80
2022/05/02 08:56:19;;;;;;;11.35;9.18;;;14.20;96.50;;;;;;4935471;29;20218;-80
2022/05/02 08:59:22;;;;;;;10.73;9.63;;;14.20;96.50;;;;;;4935587;29;20198;-80
2022/05/02 09:02:33;;;;;;;11.38;10.18;;;14.40;97.10;;;;;;4951850;28;20201;-81
2022/05/02 09:05:38;;;;;;;14.90;9.25;;;14.40;96.60;;;;;;4955065;29;20205;-80
2022/05/02 09:08:51;;;;;;;9.98;8.85;;;14.40;96.20;;;;;;4954282;29;20206;-80
2022/05/02 09:11:35;;;;;;;10.05;8.90;;;14.40;97.20;;;;;;4954948;29;20202;-80
2022/05/02 09:14:38;;;;;;;11.10;9.90;;;14.40;97.30;;;;;;4939448;29;20218;-80
2022/05/02 09:17:41;;;;;;;10.23;8.63;;;14.50;96.70;;;;;;4948412;29;20197;-81
2022/05/02 09:20:44;;;;;;;11.30;9.32;;;14.70;96.40;;;;;;4940204;29;20664;-81
2022/05/02 09:24:03;;;;;;;10.45;9.35;;;14.80;95.80;;;;;;4955483;29;20222;-80
2022/05/02 09:26:57;;;;;;;11.15;10.05;;;14.90;96.20;;;;;;4938664;29;20206;-80
2022/05/02 09:30:01;;;;;;;11.13;10.00;;;14.90;97.60;;;;;;4935595;29;20204;-80
2022/05/02 09:32:46;;;;;;;18.15;9.88;;;15.00;97.40;;;;;;4948475;29;20209;-80
2022/05/02 09:35:28;;;;;;;20.10;10.60;;;15.00;96.80;;;;;;4948763;29;20222;-81
2022/05/02 09:38:00;;;;;;;13.63;9.77;;;15.00;97.70;;;;;;4936957;29;20198;-81
2022/05/02 09:40:36;;;;;;;12.18;9.68;;;15.10;97.10;;;;;;4954028;28;20665;-81
2022/05/02 09:49:33;;;;;;;10.20;9.20;;;15.20;97.20;;;;;;4931840;29;20230;-80
2022/05/02 09:49:38;;;;;;;12.07;9.88;;;15.20;96.40;;;;;;4920689;29;20198;-80
2022/05/02 09:52:15;;;;;;;10.95;9.05;;;15.20;96.40;;;;;;4952123;29;20202;-81
2022/05/02 09:58:21;;;;;;;10.75;9.63;;;15.40;96.00;;;;;;4936652;29;20177;-80
2022/05/02 10:01:13;;;;;;;10.90;9.82;;;15.40;95.80;;;;;;4951351;29;20211;-81
2022/05/02 10:03:50;;;;;;;10.48;8.60;;;15.50;95.80;;;;;;4952333;29;20626;-81
2022/05/02 10:06:27;;;;;;;11.65;10.43;;;15.60;96.20;;;;;;4949576;29;20205;-81
2022/05/02 10:09:00;;;;;;;10.73;9.63;;;15.70;95.60;;;;;;4929993;29;20206;-80
2022/05/02 10:11:41;;;;;;;10.88;9.15;;;15.80;95.80;;;;;;4951825;29;20202;-80
2022/05/02 10:14:34;;;;;;;10.75;9.65;;;15.90;95.20;;;;;;4921596;29;20226;-80
2022/05/02 10:17:07;;;;;;;11.98;9.05;;;16.00;96.30;;;;;;4936391;29;20680;-80
2022/05/02 10:20:10;;;;;;;11.73;8.60;;;16.00;95.30;;;;;;4937322;29;20201;-80
2022/05/02 10:22:51;;;;;;;13.73;9.00;;;16.20;95.20;;;;;;4947731;29;20569;-80
2022/05/02 10:25:33;;;;;;;9.50;8.55;;;16.40;95.00;;;;;;4951507;29;20194;-81
2022/05/02 10:28:30;;;;;;;15.07;9.82;;;16.40;95.50;;;;;;4951541;29;20210;-81
2022/05/02 10:31:13;;;;;;;11.88;8.77;;;16.50;94.00;;;;;;4900816;29;20194;-82
2022/05/02 10:33:45;;;;;;;10.23;8.90;;;16.70;95.20;;;;;;4952596;29;20246;-82
2022/05/02 10:36:14;;;;;;;12.25;9.43;;;16.60;94.00;;;;;;4952794;29;20669;-82
2022/05/02 10:38:51;;;;;;;9.80;8.77;;;16.70;94.70;;;;;;4947488;29;20203;-82
2022/05/02 10:41:24;;;;;;;9.35;8.38;;;16.80;94.60;;;;;;4945241;29;20213;-82
2022/05/02 10:44:00;;;;;;;10.00;9.10;;;16.90;93.20;;;;;;4953573;29;20218;-82
2022/05/02 10:46:31;;;;;;;10.23;9.20;;;17.00;93.70;;;;;;4951929;29;20206;-82
2022/05/02 10:49:04;;;;;;;10.98;8.30;;;17.00;92.90;;;;;;4936079;29;20199;-82
2022/05/02 10:51:50;;;;;;;9.35;8.30;;;17.00;93.70;;;;;;4936683;29;20204;-82
2022/05/02 10:54:39;;;;;;;10.00;8.88;;;17.00;93.00;;;;;;4931993;29;20668;-82
2022/05/02 10:57:21;;;;;;;10.32;9.27;;;17.20;92.40;;;;;;4948409;29;20202;-82
2022/05/02 10:59:53;;;;;;;10.73;9.55;;;17.50;91.70;;;;;;4937881;29;20656;-82
2022/05/02 11:02:52;;;;;;;12.40;8.50;;;17.70;91.60;;;;;;4953011;29;20206;-82
2022/05/02 11:05:28;;;;;;;12.40;9.40;;;18.00;91.90;;;;;;4952891;29;20209;-82
2022/05/02 11:08:04;;;;;;;10.07;9.07;;;17.90;90.90;;;;;;4938061;29;20213;-82
2022/05/02 11:10:40;;;;;;;11.07;9.15;;;18.00;91.20;;;;;;4953129;28;20587;-82
2022/05/02 11:13:12;;;;;;;10.50;9.38;;;18.20;90.10;;;;;;4936066;29;20229;-82
2022/05/02 11:15:59;;;;;;;10.15;9.15;;;18.30;89.00;;;;;;4951619;28;20230;-82
2022/05/02 11:21:31;;;;;;;12.23;9.25;;;18.00;88.90;;;;;;4952933;28;20203;-82
2022/05/02 11:24:17;;;;;;;8.65;7.90;;;18.10;88.00;;;;;;4954805;29;20229;-82
2022/05/02 11:26:53;;;;;;;9.07;7.82;;;18.50;91.30;;;;;;4961556;28;20217;-82
2022/05/02 11:29:31;;;;;;;11.15;8.68;;;18.90;90.40;;;;;;4960688;29;20202;-82
2022/05/02 11:32:04;;;;;;;10.63;9.63;;;18.90;86.60;;;;;;4950156;29;20202;-82
2022/05/02 11:34:51;;;;;;;10.88;9.73;;;18.70;85.80;;;;;;4967616;29;20226;-82
2022/05/02 11:37:32;;;;;;;12.60;8.45;;;18.70;85.60;;;;;;4961989;29;20206;-83
2022/05/02 11:40:07;;;;;;;10.73;9.05;;;19.00;86.60;;;;;;4983005;28;20213;-82
2022/05/02 11:42:42;;;;;;;12.75;9.70;;;19.20;85.60;;;;;;4953395;29;20198;-82
2022/05/02 11:45:11;;;;;;;9.68;8.77;;;19.00;83.40;;;;;;4953587;29;20215;-82
2022/05/02 11:48:08;;;;;;;12.07;9.48;;;19.10;84.00;;;;;;4967591;29;20213;-82
2022/05/02 11:50:44;;;;;;;9.85;8.93;;;19.30;85.20;;;;;;4954357;29;20210;-83
2022/05/02 11:53:13;;;;;;;13.93;10.15;;;19.30;83.50;;;;;;4947379;28;20208;-82
2022/05/02 11:55:42;;;;;;;9.57;8.43;;;19.50;82.50;;;;;;4975241;28;20220;-82
2022/05/02 11:58:18;;;;;;;9.98;8.18;;;19.80;82.60;;;;;;4971874;28;20217;-82
2022/05/02 12:00:52;;;;;;;9.25;8.32;;;19.90;81.70;;;;;;4943637;29;20218;-82
2022/05/02 12:03:24;;;;;;;11.00;8.80;;;20.40;80.10;;;;;;4935057;29;20243;-82
2022/05/02 12:05:53;;;;;;;9.45;8.30;;;20.40;77.40;;;;;;4953339;28;20576;-82
2022/05/02 12:08:26;;;;;;;11.35;9.55;;;20.50;77.70;;;;;;4947168;28;20213;-82
2022/05/02 12:11:06;;;;;;;10.55;9.45;;;19.90;80.40;;;;;;4953249;29;20202;-82
2022/05/02 12:13:47;;;;;;;9.45;8.45;;;19.70;82.40;;;;;;4957554;29;20241;-82
2022/05/02 12:16:18;;;;;;;9.05;8.10;;;20.00;79.50;;;;;;4959227;29;20217;-82
2022/05/02 12:18:50;;;;;;;9.52;8.63;;;20.50;78.70;;;;;;4944052;29;20202;-82
2022/05/02 12:21:23;;;;;;;9.05;8.20;;;20.60;73.90;;;;;;4994887;23;20224;-80
2022/05/02 12:23:52;;;;;;;9.18;7.72;;;21.00;75.00;;;;;;4965439;28;20205;-80
2022/05/02 12:26:20;;;;;;;10.05;8.93;;;21.40;70.70;;;;;;4975449;28;20598;-80
2022/05/02 12:28:51;;;;;;;10.43;9.43;;;21.00;71.60;;;;;;4988342;28;20651;-80
2022/05/02 12:31:22;;;;;;;10.05;8.95;;;20.90;70.10;;;;;;4975256;28;20232;-80
2022/05/02 12:33:56;;;;;;;9.85;8.48;;;20.80;70.50;;;;;;4976254;28;20201;-80
2022/05/02 12:36:30;;;;;;;10.10;8.45;;;20.60;74.20;;;;;;4976288;28;20217;-80
2022/05/02 12:39:04;;;;;;;9.73;8.88;;;20.90;73.00;;;;;;4969830;28;21617;-80
2022/05/02 12:41:47;;;;;;;9.52;8.48;;;20.80;73.80;;;;;;4974343;28;20220;-80
2022/05/02 12:44:17;;;;;;;9.88;8.73;;;20.70;74.70;;;;;;4972480;28;20210;-80
2022/05/02 12:46:47;;;;;;;9.77;8.57;;;20.50;72.70;;;;;;4974521;28;20572;-80
2022/05/02 12:49:24;;;;;;;8.63;7.70;;;20.30;72.70;;;;;;4987523;28;20201;-80
2022/05/02 12:51:53;;;;;;;8.48;7.65;;;20.20;70.90;;;;;;4957049;29;20228;-80
2022/05/02 12:54:26;;;;;;;8.93;8.02;;;20.60;68.90;;;;;;4972577;28;20198;-80
2022/05/02 13:02:38;;;;;;;8.20;7.45;;;20.90;67.40;;;;;;4992058;28;20692;-80
2022/05/02 13:05:08;;;;;;;8.00;7.30;;;20.90;63.90;;;;;;4991886;28;20201;-82
2022/05/02 13:07:44;;;;;;;7.57;6.88;;;20.90;65.80;;;;;;4974759;28;20204;-82
2022/05/02 13:10:17;;;;;;;7.63;6.88;;;21.40;65.90;;;;;;4989716;28;20713;-82
2022/05/02 13:12:57;;;;;;;7.47;6.70;;;21.80;64.80;;;;;;4990075;28;20205;-82
2022/05/02 13:15:27;;;;;;;8.70;7.75;;;22.40;64.50;;;;;;4973253;28;20721;-83
2022/05/02 13:17:58;;;;;;;8.85;7.88;;;21.80;64.20;;;;;;4988742;28;20208;-83
2022/05/02 13:20:28;;;;;;;8.75;7.78;;;22.00;69.10;;;;;;4973876;28;20229;-83
2022/05/02 13:23:04;;;;;;;9.27;8.30;;;21.90;66.40;;;;;;4996968;28;20201;-83
2022/05/02 13:26:10;;;;;;;9.35;8.40;;;21.80;65.10;;;;;;4989468;28;20215;-83
2022/05/02 13:28:50;;;;;;;8.90;7.63;;;21.80;66.50;;;;;;4987306;28;20205;-83
2022/05/02 13:31:27;;;;;;;8.50;7.68;;;21.70;65.60;;;;;;4990134;28;20220;-83
2022/05/02 13:34:00;;;;;;;9.10;7.32;;;21.30;63.70;;;;;;4989721;28;20204;-83
2022/05/02 13:36:31;;;;;;;8.38;6.63;;;21.00;66.70;;;;;;4989710;28;20224;-82
2022/05/02 13:39:07;;;;;;;8.63;6.88;;;21.00;66.20;;;;;;4995997;28;20205;-82
2022/05/02 13:41:43;;;;;;;8.32;6.80;;;20.80;65.40;;;;;;4989154;28;20221;-82
2022/05/02 13:44:23;;;;;;;7.68;6.97;;;20.80;66.30;;;;;;4980816;28;20181;-82